Time;durP1;ratioP1;P1;durP2;ratioP2;P2;SDS_P1;SDS_P2;PMS_P1;PMS_P2;Temp;Humidity;BMP_temperature;BMP_pressure;BME280_temperature;BME280_humidity;BME280_pressure;Samples;Min_cycle;Max_cycle;Signal;HPM_P1;HPM_P2
2024/01/02 00:01:03;;;;;;;14.07;3.55;;;;;;;4.63;100.00;99846.31;4914154;29;20145;-80
2024/01/02 00:03:30;;;;;;;9.93;3.45;;;;;;;4.62;100.00;99848.91;4927722;29;20051;-81
2024/01/02 00:05:56;;;;;;;11.95;2.95;;;;;;;4.60;100.00;99842.84;4925207;29;20058;-81
2024/01/02 00:08:23;;;;;;;10.48;3.20;;;;;;;4.58;100.00;99834.22;4940525;29;20061;-80
2024/01/02 00:10:49;;;;;;;19.88;3.47;;;;;;;4.57;100.00;99835.06;4910155;29;20390;-82
2024/01/02 00:13:18;;;;;;;12.38;3.53;;;;;;;4.55;100.00;99826.41;4938791;29;20043;-82
2024/01/02 00:15:44;;;;;;;15.27;2.88;;;;;;;4.52;100.00;99827.28;4929457;29;20058;-81
2024/01/02 00:18:11;;;;;;;17.98;4.55;;;;;;;4.51;100.00;99824.69;4910458;29;20052;-81
2024/01/02 00:20:37;;;;;;;12.32;3.00;;;;;;;4.48;100.00;99815.16;4912182;29;20537;-81
2024/01/02 00:23:04;;;;;;;13.70;3.70;;;;;;;4.46;100.00;99811.72;4923001;29;20051;-80
2024/01/02 00:25:30;;;;;;;8.43;3.45;;;;;;;4.47;100.00;99813.44;4914695;29;20054;-80
2024/01/02 00:27:58;;;;;;;26.65;4.28;;;;;;;4.46;100.00;99804.81;4925558;29;20362;-82
2024/01/02 00:30:25;;;;;;;18.42;5.03;;;;;;;4.48;100.00;99786.66;4927515;29;20057;-82
2024/01/02 00:32:51;;;;;;;7.85;2.67;;;;;;;4.49;100.00;99796.19;4927613;29;20810;-81
2024/01/02 00:35:17;;;;;;;5.82;2.58;;;;;;;4.51;100.00;99785.81;4920925;29;20485;-81
2024/01/02 00:37:44;;;;;;;11.77;3.30;;;;;;;4.51;100.00;99791.00;4913834;29;20831;-81
2024/01/02 00:40:11;;;;;;;17.35;3.28;;;;;;;4.51;100.00;99791.00;4910986;29;20133;-82
2024/01/02 00:42:37;;;;;;;10.43;2.78;;;;;;;4.46;100.00;99778.03;4928125;29;20146;-82
2024/01/02 00:45:05;;;;;;;12.68;3.58;;;;;;;4.49;100.00;99766.81;4922921;29;20044;-81
2024/01/02 00:47:32;;;;;;;13.07;2.25;;;;;;;4.50;100.00;99771.13;4908954;29;20129;-81
2024/01/02 00:49:58;;;;;;;16.85;3.95;;;;;;;4.50;100.00;99765.94;4909921;29;20064;-80
2024/01/02 00:52:25;;;;;;;10.77;2.55;;;;;;;4.51;100.00;99762.47;4911722;29;20051;-81
2024/01/02 00:54:52;;;;;;;12.45;3.40;;;;;;;4.51;100.00;99760.78;4910580;29;20082;-80
2024/01/02 00:57:21;;;;;;;13.57;2.83;;;;;;;4.51;100.00;99755.59;4907640;29;20051;-81
2024/01/02 00:59:47;;;;;;;11.65;3.05;;;;;;;4.53;100.00;99750.41;4929481;29;20055;-81
2024/01/02 01:02:14;;;;;;;11.27;3.13;;;;;;;4.52;100.00;99746.94;4917297;29;20047;-80
2024/01/02 01:04:45;;;;;;;9.75;2.70;;;;;;;4.54;100.00;99739.19;4930368;29;20058;-81
2024/01/02 01:07:12;;;;;;;8.82;2.58;;;;;;;4.60;100.00;99739.16;4925035;29;20054;-80
2024/01/02 01:09:39;;;;;;;6.93;2.20;;;;;;;4.63;100.00;99740.03;4938094;29;20051;-81
2024/01/02 01:12:07;;;;;;;13.88;2.50;;;;;;;4.66;100.00;99740.91;4925161;29;20054;-81
2024/01/02 01:14:33;;;;;;;9.38;2.75;;;;;;;4.68;100.00;99734.88;4913663;29;20134;-81
2024/01/02 01:17:00;;;;;;;6.80;2.80;;;;;;;4.74;100.00;99726.22;4925941;29;20039;-79
2024/01/02 01:19:30;;;;;;;18.95;3.25;;;;;;;4.75;100.00;99733.97;4911593;29;20047;-81
2024/01/02 01:21:57;;;;;;;10.23;3.05;;;;;;;4.78;100.00;99722.75;4930432;29;20138;-82
2024/01/02 01:24:24;;;;;;;8.10;1.95;;;;;;;4.80;100.00;99716.69;4912873;29;21671;-80
2024/01/02 01:26:52;;;;;;;6.45;1.80;;;;;;;4.86;100.00;99710.63;4922307;29;20422;-81
2024/01/02 01:29:24;;;;;;;8.25;1.95;;;;;;;4.88;100.00;99713.25;4911403;29;20039;-80
2024/01/02 01:31:53;;;;;;;8.25;2.50;;;;;;;4.89;100.00;99702.88;4910031;29;20149;-81
2024/01/02 01:34:20;;;;;;;10.05;2.05;;;;;;;4.91;100.00;99695.94;4924263;29;20418;-80
2024/01/02 01:36:46;;;;;;;12.30;1.88;;;;;;;4.95;100.00;99694.22;4911798;29;20055;-81
2024/01/02 01:39:13;;;;;;;9.23;2.50;;;;;;;4.92;100.00;99695.06;4945689;29;20094;-81
2024/01/02 01:41:39;;;;;;;6.22;1.77;;;;;;;4.93;100.00;99696.81;4923544;29;20075;-81
2024/01/02 01:44:06;;;;;;;14.63;2.30;;;;;;;4.95;100.00;99683.84;4914546;29;20051;-82
2024/01/02 01:46:42;;;;;;;10.60;1.92;;;;;;;4.94;100.00;99675.19;4927758;29;20598;-82
2024/01/02 01:49:11;;;;;;;10.32;1.85;;;;;;;4.95;100.00;99676.94;4928606;29;20055;-80
2024/01/02 01:51:44;;;;;;;7.22;2.08;;;;;;;4.99;100.00;99669.13;4922307;29;20048;-82
2024/01/02 01:54:12;;;;;;;13.40;2.15;;;;;;;5.01;100.00;99657.03;4909759;29;20413;-80
2024/01/02 01:56:41;;;;;;;8.07;1.60;;;;;;;5.04;100.00;99650.09;4911763;29;20087;-80
2024/01/02 01:59:09;;;;;;;4.80;1.48;;;;;;;5.03;100.00;99650.97;4926129;28;20047;-80
2024/01/02 02:01:37;;;;;;;11.57;3.45;;;;;;;5.11;100.00;99637.97;4906751;29;20055;-80
2024/01/02 02:04:04;;;;;;;12.05;3.45;;;;;;;5.15;100.00;99634.53;4901219;29;20339;-80
2024/01/02 02:06:30;;;;;;;9.30;1.70;;;;;;;5.17;100.00;99630.16;4909450;29;20040;-81
2024/01/02 02:08:57;;;;;;;8.82;2.97;;;;;;;5.17;100.00;99619.78;4924153;29;20339;-81
2024/01/02 02:11:25;;;;;;;11.00;2.47;;;;;;;5.21;100.00;99615.47;4912360;29;20058;-82
2024/01/02 02:13:52;;;;;;;10.40;2.78;;;;;;;5.23;100.00;99609.41;4941305;29;20040;-81
2024/01/02 02:16:19;;;;;;;14.13;2.60;;;;;;;5.22;100.00;99605.06;4925157;29;20059;-80
2024/01/02 02:18:46;;;;;;;10.15;2.35;;;;;;;5.24;100.00;99597.28;4902644;29;20532;-82
2024/01/02 02:21:12;;;;;;;6.40;1.15;;;;;;;5.16;100.00;99594.72;4906833;29;20150;-81
2024/01/02 02:23:38;;;;;;;7.90;2.35;;;;;;;5.22;100.00;99589.50;4922472;29;20059;-81
2024/01/02 02:26:05;;;;;;;5.53;2.08;;;;;;;5.21;100.00;99579.13;4923056;29;20221;-80
2024/01/02 02:28:32;;;;;;;14.73;2.90;;;;;;;5.23;100.00;99570.47;4936590;29;20457;-82
2024/01/02 02:31:00;;;;;;;14.43;2.60;;;;;;;5.24;100.00;99556.63;4911980;29;20055;-81
2024/01/02 02:33:26;;;;;;;4.35;1.88;;;;;;;5.29;100.00;99557.47;4923495;29;20058;-81
2024/01/02 02:35:53;;;;;;;10.13;2.42;;;;;;;5.29;100.00;99554.88;4912281;29;20058;-80
2024/01/02 02:38:19;;;;;;;8.25;2.33;;;;;;;5.32;100.00;99547.94;4906137;29;20055;-79
2024/01/02 02:40:46;;;;;;;9.85;2.60;;;;;;;5.38;100.00;99542.72;4908613;29;20060;-81
2024/01/02 02:43:12;;;;;;;5.97;2.92;;;;;;;5.38;100.00;99534.94;4913340;29;20509;-80
2024/01/02 02:45:39;;;;;;;6.97;2.78;;;;;;;5.41;100.00;99524.53;4910838;29;20580;-81
2024/01/02 02:48:06;;;;;;;10.38;2.58;;;;;;;5.46;100.00;99518.44;4911614;29;20043;-80
2024/01/02 02:50:32;;;;;;;6.80;1.80;;;;;;;5.52;100.00;99514.09;4922271;29;20119;-82
2024/01/02 02:52:59;;;;;;;8.00;1.92;;;;;;;5.53;100.00;99503.69;4913147;29;20142;-82
2024/01/02 02:55:25;;;;;;;6.40;1.65;;;;;;;5.52;100.00;99504.56;4909669;29;20058;-80
2024/01/02 02:57:54;;;;;;;12.07;2.20;;;;;;;5.57;100.00;99495.00;4923168;28;20058;-81
2024/01/02 03:00:24;;;;;;;10.43;2.20;;;;;;;5.59;100.00;99495.00;4940961;29;20047;-81
2024/01/02 03:02:50;;;;;;;9.18;1.88;;;;;;;5.59;100.00;99495.00;4919105;29;20052;-80
2024/01/02 03:05:17;;;;;;;7.55;1.75;;;;;;;5.58;100.00;99494.16;4927256;29;20070;-80
2024/01/02 03:07:46;;;;;;;9.05;3.30;;;;;;;5.59;100.00;99488.09;4911523;29;20051;-82
2024/01/02 03:10:17;;;;;;;8.13;2.03;;;;;;;5.65;100.00;99487.16;4931163;29;20040;-81
2024/01/02 03:12:45;;;;;;;12.32;2.15;;;;;;;5.66;100.00;99478.50;4915355;29;20386;-80
2024/01/02 03:15:12;;;;;;;7.03;1.48;;;;;;;5.69;100.00;99469.84;4910812;29;20047;-81
2024/01/02 03:17:38;;;;;;;6.10;2.40;;;;;;;5.72;100.00;99464.59;4942356;29;20051;-82
2024/01/02 03:20:06;;;;;;;8.68;4.38;;;;;;;5.70;100.00;99453.38;4927369;29;20047;-81
2024/01/02 03:22:33;;;;;;;5.70;1.75;;;;;;;5.69;100.00;99452.50;4943337;29;20039;-80
2024/01/02 03:24:59;;;;;;;7.53;2.33;;;;;;;5.75;100.00;99451.59;4926435;29;20078;-80
2024/01/02 03:27:25;;;;;;;7.82;2.03;;;;;;;5.76;100.00;99436.00;4920340;29;20339;-82
2024/01/02 03:29:52;;;;;;;5.50;1.30;;;;;;;5.76;100.00;99436.00;4913082;29;20050;-80
2024/01/02 03:32:19;;;;;;;10.07;1.75;;;;;;;5.77;100.00;99429.06;4923641;29;20514;-81
2024/01/02 03:34:45;;;;;;;6.78;1.52;;;;;;;5.84;100.00;99422.97;4930258;29;20059;-81
2024/01/02 03:37:13;;;;;;;6.55;1.40;;;;;;;5.82;100.00;99408.28;4911838;29;20074;-81
2024/01/02 03:39:39;;;;;;;7.60;2.50;;;;;;;5.87;100.00;99412.53;4927021;29;20055;-81
2024/01/02 03:42:06;;;;;;;8.25;2.10;;;;;;;5.90;100.00;99402.09;4927941;29;20055;-80
2024/01/02 03:44:33;;;;;;;3.95;1.02;;;;;;;5.91;100.00;99395.19;4929324;29;20123;-81
2024/01/02 03:46:59;;;;;;;9.50;1.95;;;;;;;5.89;100.00;99379.63;4926071;29;20715;-80
2024/01/02 03:49:26;;;;;;;12.45;2.42;;;;;;;5.91;100.00;99380.44;4929862;29;20073;-80
2024/01/02 03:51:55;;;;;;;6.18;2.10;;;;;;;5.95;100.00;99371.75;4928057;29;20043;-82
2024/01/02 03:54:21;;;;;;;7.38;1.60;;;;;;;6.00;100.00;99369.16;4930224;29;20047;-81
2024/01/02 03:56:48;;;;;;;9.77;2.20;;;;;;;5.99;100.00;99363.97;4908666;28;20056;-80
2024/01/02 03:59:14;;;;;;;5.30;1.42;;;;;;;6.02;100.00;99354.38;4923531;29;20409;-80
2024/01/02 04:01:45;;;;;;;10.77;1.75;;;;;;;6.05;100.00;99343.97;4914693;29;20150;-81
2024/01/02 04:04:11;;;;;;;6.53;1.33;;;;;;;6.05;100.00;99333.59;4924131;29;20055;-81
2024/01/02 04:06:40;;;;;;;6.28;1.27;;;;;;;6.06;100.00;99332.72;4912148;29;20142;-81
2024/01/02 04:09:08;;;;;;;5.70;1.98;;;;;;;6.07;100.00;99326.63;4929263;29;20424;-80
2024/01/02 04:11:34;;;;;;;9.15;1.58;;;;;;;6.08;100.00;99319.69;4915622;29;20069;-80
2024/01/02 04:14:01;;;;;;;7.65;1.70;;;;;;;6.04;100.00;99312.81;4932496;29;20049;-80
2024/01/02 04:16:27;;;;;;;8.82;2.25;;;;;;;6.04;100.00;99302.44;4912157;29;20520;-82
2024/01/02 04:18:54;;;;;;;4.40;1.10;;;;;;;6.07;100.00;99290.25;4911274;29;20055;-79
2024/01/02 04:21:20;;;;;;;5.22;1.67;;;;;;;6.06;100.00;99287.66;4922978;29;20130;-80
2024/01/02 04:23:47;;;;;;;3.85;1.55;;;;;;;6.07;100.00;99271.22;4914188;29;20603;-80
2024/01/02 04:26:13;;;;;;;2.95;2.05;;;;;;;6.05;100.00;99267.75;4925573;29;20040;-80
2024/01/02 04:28:42;;;;;;;15.68;2.00;;;;;;;6.05;100.00;99258.25;4926633;29;20055;-81
2024/01/02 04:31:09;;;;;;;8.32;2.85;;;;;;;6.02;100.00;99258.28;4912051;29;20051;-82
2024/01/02 04:33:35;;;;;;;5.22;1.20;;;;;;;6.00;100.00;99244.47;4930319;29;20470;-81
2024/01/02 04:36:02;;;;;;;5.18;2.00;;;;;;;6.03;100.00;99241.81;4929954;29;20527;-80
2024/01/02 04:38:28;;;;;;;6.32;1.95;;;;;;;5.97;100.00;99239.25;4904466;29;20417;-80
2024/01/02 04:40:57;;;;;;;4.20;1.23;;;;;;;5.95;100.00;99233.22;4909778;29;20055;-82
2024/01/02 04:43:24;;;;;;;9.05;1.60;;;;;;;5.96;100.00;99228.00;4906212;29;20131;-80
2024/01/02 04:45:53;;;;;;;3.45;1.45;;;;;;;5.95;100.00;99218.50;4925186;29;20047;-80
2024/01/02 04:48:20;;;;;;;7.55;1.90;;;;;;;5.94;100.00;99219.41;4921780;29;20147;-82
2024/01/02 04:50:46;;;;;;;1.85;1.00;;;;;;;5.90;100.00;99209.06;4911661;29;20074;-81
2024/01/02 04:53:13;;;;;;;6.95;1.30;;;;;;;5.90;100.00;99196.06;4926373;29;20058;-82
2024/01/02 04:55:39;;;;;;;4.72;1.50;;;;;;;5.83;100.00;99190.09;4928045;29;20049;-80
2024/01/02 04:58:06;;;;;;;7.07;1.33;;;;;;;5.85;100.00;99187.47;4923575;29;20527;-79
2024/01/02 05:00:34;;;;;;;4.22;2.25;;;;;;;5.87;100.00;99184.00;4935273;29;20142;-81
2024/01/02 05:03:01;;;;;;;5.57;1.50;;;;;;;5.87;100.00;99172.75;4924414;29;20052;-80
2024/01/02 05:05:28;;;;;;;3.33;1.30;;;;;;;5.83;100.00;99169.34;4920178;29;20442;-80
2024/01/02 05:07:54;;;;;;;4.60;1.20;;;;;;;5.85;100.00;99167.56;4941794;29;20051;-79
2024/01/02 05:10:21;;;;;;;3.67;1.10;;;;;;;5.83;100.00;99160.66;4911546;29;20079;-80
2024/01/02 05:12:50;;;;;;;7.57;1.42;;;;;;;5.83;100.00;99148.56;4914541;29;20154;-80
2024/01/02 05:15:16;;;;;;;9.60;1.65;;;;;;;5.82;100.00;99151.19;4905854;29;20050;-81
2024/01/02 05:17:43;;;;;;;2.20;1.35;;;;;;;5.81;100.00;99142.50;4913718;29;20055;-81
2024/01/02 05:20:10;;;;;;;5.90;2.50;;;;;;;5.77;100.00;99139.09;4926898;29;20075;-80
2024/01/02 05:22:36;;;;;;;7.55;1.35;;;;;;;5.79;100.00;99139.94;4910765;29;20057;-80
2024/01/02 05:25:03;;;;;;;4.85;1.27;;;;;;;5.71;100.00;99139.19;4923730;29;20039;-81
2024/01/02 05:27:29;;;;;;;5.28;1.55;;;;;;;5.74;100.00;99138.31;4906893;29;20126;-80
2024/01/02 05:29:56;;;;;;;5.40;1.42;;;;;;;5.66;100.00;99133.22;4913186;29;20134;-80
2024/01/02 05:32:22;;;;;;;5.03;2.10;;;;;;;5.63;100.00;99131.50;4926353;29;20222;-80
2024/01/02 05:34:49;;;;;;;4.43;1.40;;;;;;;5.57;100.00;99125.53;4927140;29;20056;-81
2024/01/02 05:37:16;;;;;;;3.63;0.88;;;;;;;5.53;100.00;99129.03;4912842;29;20517;-81
2024/01/02 05:39:43;;;;;;;8.10;1.30;;;;;;;5.50;100.00;99127.38;4927597;29;20062;-82
2024/01/02 05:42:10;;;;;;;3.30;1.15;;;;;;;5.52;100.00;99124.75;4928687;29;20177;-79
2024/01/02 05:44:36;;;;;;;6.35;1.65;;;;;;;5.50;100.00;99116.09;4937646;29;20103;-81
2024/01/02 05:47:03;;;;;;;6.05;3.13;;;;;;;5.45;100.00;99104.06;4911373;29;20143;-80
2024/01/02 05:49:29;;;;;;;11.00;1.52;;;;;;;5.45;100.00;99095.44;4938510;29;20173;-80
2024/01/02 05:51:57;;;;;;;12.02;1.30;;;;;;;5.43;100.00;99094.56;4926751;29;20046;-80
2024/01/02 05:54:24;;;;;;;4.18;0.90;;;;;;;5.43;100.00;99086.78;4922872;29;20043;-81
2024/01/02 05:56:50;;;;;;;2.58;1.02;;;;;;;5.47;100.00;99088.47;4929116;29;20099;-81
2024/01/02 05:59:17;;;;;;;8.10;2.83;;;;;;;5.45;100.00;99083.28;4923413;29;20043;-80
2024/01/02 06:01:43;;;;;;;2.88;1.58;;;;;;;5.47;100.00;99084.16;4925105;29;20062;-80
2024/01/02 06:04:10;;;;;;;2.28;1.02;;;;;;;5.48;100.00;99074.59;4910038;29;20055;-81
2024/01/02 06:06:36;;;;;;;1.10;0.70;;;;;;;5.46;100.00;99066.84;4925373;29;20044;-81
2024/01/02 06:09:02;;;;;;;1.80;0.57;;;;;;;5.50;100.00;99061.59;4927435;29;20051;-80
2024/01/02 06:11:30;;;;;;;1.55;0.95;;;;;;;5.47;100.00;99047.81;4925080;29;20043;-81
2024/01/02 06:13:57;;;;;;;2.15;0.95;;;;;;;5.43;100.00;99048.72;4917877;29;20397;-81
2024/01/02 06:16:23;;;;;;;2.20;0.47;;;;;;;5.50;100.00;99048.63;4910013;29;20055;-82
2024/01/02 06:18:52;;;;;;;3.58;0.60;;;;;;;5.50;100.00;99041.72;4906470;29;20509;-82
2024/01/02 06:21:19;;;;;;;0.88;0.88;;;;;;;5.46;100.00;99027.91;4911901;29;20043;-83
2024/01/02 06:23:46;;;;;;;5.88;0.95;;;;;;;5.48;100.00;99017.50;4926086;29;20498;-80
2024/01/02 06:26:13;;;;;;;2.83;0.60;;;;;;;5.51;100.00;99016.59;4927449;29;20055;-82
2024/01/02 06:28:39;;;;;;;1.35;0.30;;;;;;;5.51;100.00;99009.66;4942623;29;20427;-82
2024/01/02 06:31:06;;;;;;;2.30;0.40;;;;;;;5.51;100.00;99004.47;4926321;29;20122;-81
2024/01/02 06:33:33;;;;;;;2.10;0.55;;;;;;;5.49;100.00;99003.66;4926608;29;20047;-81
2024/01/02 06:36:00;;;;;;;3.05;0.68;;;;;;;5.50;100.00;99000.19;4928730;29;20106;-81
2024/01/02 06:38:26;;;;;;;3.28;0.45;;;;;;;5.49;100.00;98987.22;4944148;29;20043;-81
2024/01/02 06:40:54;;;;;;;2.20;0.40;;;;;;;5.49;100.00;98982.91;4925056;29;20477;-81
2024/01/02 06:43:23;;;;;;;1.58;0.32;;;;;;;5.46;100.00;98982.91;4926354;29;20402;-82
2024/01/02 06:45:50;;;;;;;2.90;0.65;;;;;;;5.45;100.00;98978.63;4928331;29;20459;-81
2024/01/02 06:48:19;;;;;;;1.30;0.55;;;;;;;5.25;100.00;98977.19;4933304;29;20058;-81
2024/01/02 06:50:46;;;;;;;1.17;0.15;;;;;;;5.35;100.00;98964.94;4932229;29;20872;-81
2024/01/02 06:53:12;;;;;;;1.08;0.35;;;;;;;5.33;100.00;98979.66;4942241;29;20043;-81
2024/01/02 06:55:39;;;;;;;1.17;0.25;;;;;;;5.33;100.00;98976.22;4925987;29;20571;-79
2024/01/02 06:58:06;;;;;;;3.83;0.25;;;;;;;5.32;100.00;98974.50;4925833;29;20486;-80
2024/01/02 07:00:33;;;;;;;0.50;0.17;;;;;;;5.23;100.00;98986.72;4909676;29;20127;-81
2024/01/02 07:03:01;;;;;;;1.10;0.17;;;;;;;5.17;100.00;98986.81;4927116;28;20051;-82
2024/01/02 07:05:30;;;;;;;0.38;0.38;;;;;;;5.09;100.00;98973.09;4914690;29;20048;-81
2024/01/02 07:07:57;;;;;;;3.28;1.30;;;;;;;5.01;100.00;98970.59;4914725;29;20058;-82
2024/01/02 07:10:25;;;;;;;0.60;0.20;;;;;;;4.95;100.00;98971.56;4913895;29;20047;-81
2024/01/02 07:12:51;;;;;;;0.38;0.10;;;;;;;4.87;100.00;98975.97;4908679;29;20122;-81
2024/01/02 07:15:20;;;;;;;1.05;0.30;;;;;;;4.82;100.00;98975.16;4911084;29;22794;-82
2024/01/02 07:17:49;;;;;;;0.43;0.32;;;;;;;4.84;100.00;98969.94;4925903;29;20047;-82
2024/01/02 07:20:15;;;;;;;1.38;0.20;;;;;;;4.69;100.00;98966.66;4916371;29;20098;-83
2024/01/02 07:22:44;;;;;;;1.85;0.28;;;;;;;4.64;100.00;98969.34;4930740;29;20043;-82
2024/01/02 07:25:12;;;;;;;4.00;0.20;;;;;;;4.58;100.00;98947.81;4926303;29;20059;-83
2024/01/02 07:27:38;;;;;;;1.30;0.25;;;;;;;4.55;100.00;98950.44;4917121;29;20127;-84
2024/01/02 07:30:05;;;;;;;0.43;0.25;;;;;;;4.51;100.00;98940.97;4914616;29;20146;-83
2024/01/02 07:32:32;;;;;;;1.08;0.68;;;;;;;4.52;100.00;98940.13;4944511;29;20051;-82
2024/01/02 07:34:58;;;;;;;0.52;0.22;;;;;;;4.47;100.00;98934.97;4918364;29;20051;-83
2024/01/02 07:37:25;;;;;;;0.90;0.85;;;;;;;4.37;100.00;98936.81;4930257;29;20116;-84
2024/01/02 07:39:53;;;;;;;0.30;0.30;;;;;;;4.38;100.00;98935.09;4926519;29;20106;-83
2024/01/02 07:42:21;;;;;;;1.05;0.30;;;;;;;4.30;100.00;98933.44;4933051;29;20062;-87
2024/01/02 07:44:47;;;;;;;0.40;0.30;;;;;;;4.29;100.00;98925.69;4931487;29;20114;-86
2024/01/02 07:47:16;;;;;;;0.32;0.32;;;;;;;4.33;100.00;98923.91;4943835;29;20541;-85
2024/01/02 07:49:43;;;;;;;1.98;0.30;;;;;;;4.33;100.00;98926.50;4915223;29;20044;-86
2024/01/02 07:52:09;;;;;;;1.40;0.10;;;;;;;4.33;100.00;98923.91;4929444;29;20065;-85
2024/01/02 07:54:39;;;;;;;0.10;0.10;;;;;;;4.33;100.00;98927.38;4940136;29;20070;-87
2024/01/02 07:57:07;;;;;;;0.30;0.20;;;;;;;4.31;100.00;98916.16;4914406;29;20317;-87
2024/01/02 07:59:36;;;;;;;1.77;0.20;;;;;;;4.26;100.00;98907.59;4914415;29;20134;-85
2024/01/02 08:02:02;;;;;;;2.22;0.00;;;;;;;4.18;100.00;98910.25;4944372;29;20527;-87
2024/01/02 08:04:30;;;;;;;1.85;0.20;;;;;;;4.19;100.00;98905.97;4913758;29;20047;-87
2024/01/02 08:06:57;;;;;;;3.90;0.55;;;;;;;4.21;100.00;98894.72;4914140;29;20074;-86
2024/01/02 08:09:24;;;;;;;0.40;0.10;;;;;;;4.14;100.00;98877.50;4927917;29;20047;-86
2024/01/02 08:11:57;;;;;;;2.25;0.30;;;;;;;4.18;100.00;98863.66;4913496;29;20123;-88
2024/01/02 08:14:24;;;;;;;0.30;0.10;;;;;;;4.18;100.00;98865.38;4912922;29;20078;-85
2024/01/02 08:16:53;;;;;;;0.43;0.30;;;;;;;4.16;100.00;98859.34;4918767;29;20126;-86
2024/01/02 08:19:22;;;;;;;1.27;0.20;;;;;;;4.24;100.00;98849.78;4941364;29;20173;-86
2024/01/02 08:21:48;;;;;;;1.13;0.22;;;;;;;4.15;100.00;98853.34;4915619;29;20055;-87
2024/01/02 08:24:15;;;;;;;1.55;0.00;;;;;;;4.12;100.00;98853.38;4930820;29;20055;-85
2024/01/02 08:26:42;;;;;;;0.38;0.05;;;;;;;4.04;100.00;98850.00;4912732;29;20189;-85
2024/01/02 08:29:09;;;;;;;0.08;0.08;;;;;;;4.03;100.00;98851.75;4915876;29;20493;-86
2024/01/02 08:31:35;;;;;;;0.10;0.10;;;;;;;4.01;100.00;98848.31;4915271;29;20047;-85
2024/01/02 08:34:02;;;;;;;0.28;0.10;;;;;;;4.00;100.00;98851.75;4909060;29;20114;-87
2024/01/02 08:36:29;;;;;;;2.60;0.10;;;;;;;4.03;100.00;98843.09;4909523;29;20042;-87
2024/01/02 08:38:56;;;;;;;0.47;0.10;;;;;;;4.03;100.00;98830.16;4914983;29;20432;-85
2024/01/02 08:41:23;;;;;;;0.08;0.05;;;;;;;4.01;100.00;98821.56;4912508;29;20394;-84
2024/01/02 08:43:49;;;;;;;1.15;0.00;;;;;;;4.00;100.00;98825.88;4927274;29;20086;-86
2024/01/02 08:46:16;;;;;;;0.52;0.10;;;;;;;3.98;100.00;98823.31;4914190;29;20532;-85
2024/01/02 08:48:44;;;;;;;0.15;0.10;;;;;;;3.93;100.00;98806.13;4941474;29;20063;-86
2024/01/02 08:51:11;;;;;;;0.10;0.00;;;;;;;4.03;100.00;98802.56;4914340;29;20439;-86
2024/01/02 08:53:41;;;;;;;0.10;0.10;;;;;;;4.04;100.00;98804.28;4910534;29;20051;-85
2024/01/02 08:56:11;;;;;;;0.55;0.20;;;;;;;4.00;100.00;98793.97;4921895;29;20043;-85
2024/01/02 08:58:42;;;;;;;0.10;0.10;;;;;;;3.93;100.00;98806.13;4906925;29;21214;-85
2024/01/02 09:01:12;;;;;;;0.15;0.10;;;;;;;3.97;100.00;98806.06;4915277;29;20067;-86
2024/01/02 09:03:39;;;;;;;0.10;0.10;;;;;;;3.91;100.00;98803.56;4923605;29;20145;-86
2024/01/02 09:06:06;;;;;;;0.10;0.10;;;;;;;3.85;100.00;98803.63;4944033;29;20043;-85
2024/01/02 09:08:34;;;;;;;0.25;0.17;;;;;;;3.89;100.00;98807.03;4920057;29;20070;-86
2024/01/02 09:11:06;;;;;;;0.50;0.17;;;;;;;3.87;100.00;98806.19;4909717;29;20189;-86
2024/01/02 09:13:32;;;;;;;0.10;0.10;;;;;;;3.91;100.00;98810.44;4942775;29;20063;-86
2024/01/02 09:15:59;;;;;;;0.40;0.20;;;;;;;3.90;100.00;98813.94;4916184;29;20043;-86
2024/01/02 09:18:26;;;;;;;0.50;0.20;;;;;;;3.95;100.00;98806.94;4915625;29;20043;-85
2024/01/02 09:20:52;;;;;;;0.70;0.20;;;;;;;3.93;100.00;98806.13;4937797;29;20058;-86
2024/01/02 09:23:19;;;;;;;1.02;0.25;;;;;;;3.90;100.00;98804.44;4934358;29;20058;-86
2024/01/02 09:25:48;;;;;;;0.10;0.10;;;;;;;3.94;100.00;98795.75;4913922;29;20150;-86
2024/01/02 09:28:16;;;;;;;0.30;0.20;;;;;;;4.00;100.00;98791.38;4927912;29;20055;-86
2024/01/02 09:30:45;;;;;;;0.28;0.28;;;;;;;4.05;100.00;98780.06;4924361;29;20106;-85
2024/01/02 09:33:12;;;;;;;0.70;0.13;;;;;;;4.03;100.00;98763.72;4932257;29;20098;-85
2024/01/02 09:35:39;;;;;;;0.25;0.10;;;;;;;4.10;100.00;98767.06;4915577;29;20047;-85
2024/01/02 09:38:05;;;;;;;0.30;0.30;;;;;;;4.14;100.00;98769.59;4940489;29;20082;-85
2024/01/02 09:41:12;;;;;;;0.20;0.20;;;;;;;4.24;100.00;98766.91;4926955;29;20129;-85
2024/01/02 09:44:20;;;;;;;0.30;0.30;;;;;;;4.30;100.00;98756.44;4937718;29;20462;-86
2024/01/02 09:47:44;;;;;;;0.40;0.20;;;;;;;4.35;100.00;98738.25;4925068;29;20605;-85
2024/01/02 09:50:13;;;;;;;0.80;0.20;;;;;;;4.39;100.00;98737.31;4929362;29;20457;-85
2024/01/02 09:53:29;;;;;;;0.25;0.17;;;;;;;4.43;100.00;98747.63;4929755;29;20055;-85
2024/01/02 09:56:11;;;;;;;0.82;0.60;;;;;;;4.52;100.00;98748.38;4943966;29;20043;-84
2024/01/02 09:58:51;;;;;;;1.48;0.30;;;;;;;4.53;100.00;98744.91;4914791;29;21242;-84
2024/01/02 10:01:54;;;;;;;0.30;0.30;;;;;;;4.55;100.00;98724.97;4929163;29;20046;-85
2024/01/02 10:04:44;;;;;;;2.63;0.45;;;;;;;4.62;100.00;98736.97;4935946;29;20047;-85
2024/01/02 10:07:27;;;;;;;1.05;0.95;;;;;;;4.68;100.00;98728.25;4929878;29;20467;-83
2024/01/02 10:10:11;;;;;;;0.38;0.38;;;;;;;4.73;100.00;98718.66;4930105;29;20058;-84
2024/01/02 10:13:22;;;;;;;0.60;0.60;;;;;;;4.79;100.00;98713.38;4934741;29;20051;-86
2024/01/02 10:16:05;;;;;;;3.03;1.13;;;;;;;4.84;100.00;98711.56;4930319;29;20051;-85
2024/01/02 10:19:02;;;;;;;0.50;0.30;;;;;;;4.87;100.00;98708.91;4911143;29;20103;-85
2024/01/02 10:21:43;;;;;;;0.20;0.20;;;;;;;4.94;100.00;98718.31;4923052;29;20126;-86
2024/01/02 10:24:51;;;;;;;0.40;0.30;;;;;;;5.01;100.00;98711.28;4918451;29;20090;-86
2024/01/02 10:27:28;;;;;;;0.20;0.20;;;;;;;5.05;100.00;98688.75;4925973;29;20051;-86
2024/01/02 10:30:08;;;;;;;0.85;0.30;;;;;;;5.09;100.00;98691.22;4934829;29;20482;-85
2024/01/02 10:33:03;;;;;;;0.13;0.13;;;;;;;5.16;100.00;98691.13;4930582;29;20418;-85
2024/01/02 10:35:38;;;;;;;0.20;0.20;;;;;;;5.12;100.00;98680.81;4920698;29;20091;-83
2024/01/02 10:38:38;;;;;;;0.40;0.40;;;;;;;5.24;100.00;98681.44;4938961;29;20031;-84
2024/01/02 10:41:56;;;;;;;0.80;0.55;;;;;;;5.23;100.00;98672.00;4915773;29;20056;-85
2024/01/02 10:44:31;;;;;;;0.40;0.32;;;;;;;5.36;100.00;98678.63;4869317;29;20053;-85
2024/01/02 10:47:11;;;;;;;0.55;0.50;;;;;;;5.42;100.00;98683.72;4919056;29;20107;-85
2024/01/02 10:49:52;;;;;;;1.35;1.25;;;;;;;5.50;100.00;98674.91;4931045;29;20055;-86
2024/01/02 10:52:47;;;;;;;1.58;1.20;;;;;;;5.53;100.00;98680.03;4914366;29;20134;-84
2024/01/02 10:55:26;;;;;;;0.82;0.80;;;;;;;5.55;100.00;98673.06;4942449;29;20192;-86
2024/01/02 10:58:20;;;;;;;0.45;0.45;;;;;;;5.62;100.00;98672.06;4938848;29;20039;-84
2024/01/02 11:01:08;;;;;;;0.95;0.55;;;;;;;5.62;100.00;98675.50;4930151;29;20061;-85
2024/01/02 11:03:57;;;;;;;0.60;0.45;;;;;;;5.71;100.00;98677.06;4926735;29;20460;-85
2024/01/02 11:06:46;;;;;;;0.85;0.85;;;;;;;5.80;100.00;98676.00;4915405;29;20046;-86
2024/01/02 11:09:39;;;;;;;0.50;0.50;;;;;;;5.84;100.00;98675.06;4938945;29;20047;-85
2024/01/02 11:12:09;;;;;;;1.50;0.50;;;;;;;5.88;100.00;98670.66;4943074;29;20047;-84
2024/01/02 11:14:41;;;;;;;0.60;0.60;;;;;;;5.92;100.00;98667.97;4913618;29;20067;-84
2024/01/02 11:17:10;;;;;;;0.85;0.50;;;;;;;5.93;100.00;98668.81;4913722;29;20444;-85
2024/01/02 11:20:10;;;;;;;0.38;0.38;;;;;;;5.99;100.00;98670.47;4924817;29;20067;-86
2024/01/02 11:22:45;;;;;;;1.30;0.40;;;;;;;6.02;100.00;98666.03;4928397;29;20134;-85
2024/01/02 11:25:15;;;;;;;0.90;0.40;;;;;;;6.07;100.00;98663.34;4928558;29;20544;-86
2024/01/02 11:27:43;;;;;;;0.52;0.50;;;;;;;6.13;100.00;98663.22;4942238;29;20095;-86
2024/01/02 11:30:12;;;;;;;0.65;0.40;;;;;;;6.20;100.00;98659.56;4928548;29;20134;-85
2024/01/02 11:33:05;;;;;;;0.57;0.57;;;;;;;6.29;100.00;98658.50;4932894;29;20138;-84
2024/01/02 11:35:44;;;;;;;0.50;0.50;;;;;;;6.35;100.00;98660.97;4923117;29;20528;-85
2024/01/02 11:38:12;;;;;;;0.40;0.30;;;;;;;6.39;100.00;98660.00;4916869;29;20079;-85
2024/01/02 11:41:17;;;;;;;0.90;0.38;;;;;;;6.44;100.00;98652.94;4942204;29;20398;-86
2024/01/02 11:43:54;;;;;;;0.93;0.88;;;;;;;6.53;100.00;98657.06;4916143;29;20421;-85
2024/01/02 11:46:25;;;;;;;1.65;0.88;;;;;;;6.55;100.00;98657.88;4944913;28;20059;-84